Terminal Aerodrome Forecast
Issued by NWS

Current Version | Previous Version | Graphics & Text | Print | Product List | Glossary On
Versions: 1 2 3 4 5 6 7 8 9 10 11 12 13 14 15 16 17 18 19
000
FTUS41 KILN 032300
TAFLCK
TAF
KLCK 032337Z 0400/0424 06006KT P6SM -SHRA SCT012 BKN040
      TEMPO 0400/0402 -SHRA
     FM040600 35003KT P6SM SCT012 BKN040
      TEMPO 0408/0412 5SM BR
     FM041300 34005KT P6SM SKC
     FM041800 32007KT P6SM SCT050=

USA.gov is the U.S. government's official web portal to all federal, state and local government web resources and services.